Time;durP1;ratioP1;P1;durP2;ratioP2;P2;SDS_P1;SDS_P2;PMS_P1;PMS_P2;Temp;Humidity;BMP_temperature;BMP_pressure;BME280_temperature;BME280_humidity;BME280_pressure;Samples;Min_cycle;Max_cycle;Signal;HPM_P1;HPM_P2
2021/12/28 00:01:13;;;;;;;1.75;0.52;;;12.80;98.80;;;;;;4956630;28;20058;-65
2021/12/28 00:03:42;;;;;;;2.53;0.55;;;12.80;98.80;;;;;;4956833;28;20031;-65
2021/12/28 00:06:09;;;;;;;2.83;0.52;;;12.70;98.70;;;;;;4956848;28;20426;-65
2021/12/28 00:08:35;;;;;;;2.13;0.70;;;12.70;98.60;;;;;;4955686;28;20107;-65
2021/12/28 00:11:02;;;;;;;2.42;0.60;;;12.70;98.60;;;;;;4953682;28;20488;-65
2021/12/28 00:13:29;;;;;;;2.78;0.50;;;12.60;98.60;;;;;;4958779;28;20031;-65
2021/12/28 00:18:21;;;;;;;4.22;0.70;;;12.60;98.50;;;;;;4956653;28;20530;-65
2021/12/28 00:20:49;;;;;;;3.17;0.52;;;12.60;98.50;;;;;;4956633;28;20023;-65
2021/12/28 00:23:20;;;;;;;1.88;0.60;;;12.50;98.50;;;;;;4952630;28;20055;-65
2021/12/28 00:25:49;;;;;;;3.35;0.52;;;12.50;98.30;;;;;;4957285;28;20038;-65
2021/12/28 00:28:15;;;;;;;2.53;0.70;;;12.50;98.30;;;;;;4955986;28;20023;-65
2021/12/28 00:30:42;;;;;;;2.97;0.63;;;12.40;98.20;;;;;;4956085;28;20030;-65
2021/12/28 00:33:08;;;;;;;1.73;0.30;;;12.40;98.30;;;;;;4956539;28;20032;-65
2021/12/28 00:35:36;;;;;;;1.17;0.40;;;12.40;98.40;;;;;;4954877;28;20027;-65
2021/12/28 00:38:04;;;;;;;1.90;0.50;;;12.40;98.20;;;;;;4953420;28;20039;-65
2021/12/28 00:40:31;;;;;;;3.55;0.50;;;12.40;98.20;;;;;;4958213;28;20101;-65
2021/12/28 00:42:57;;;;;;;3.42;0.60;;;12.40;98.30;;;;;;4956307;28;20161;-65
2021/12/28 00:45:23;;;;;;;1.90;0.45;;;12.40;98.20;;;;;;4955992;28;20023;-65
2021/12/28 00:47:48;;;;;;;1.65;0.30;;;12.40;98.30;;;;;;4956369;28;20088;-65
2021/12/28 00:50:17;;;;;;;1.40;0.50;;;12.30;98.20;;;;;;4951046;28;20098;-65
2021/12/28 00:52:43;;;;;;;1.70;0.45;;;12.40;98.30;;;;;;4965485;28;20118;-65
2021/12/28 00:55:11;;;;;;;0.52;0.25;;;12.40;98.20;;;;;;4955021;28;20066;-65
2021/12/28 00:57:36;;;;;;;1.88;0.35;;;12.40;98.20;;;;;;4954735;28;20038;-65
2021/12/28 01:00:06;;;;;;;1.05;0.40;;;12.30;98.20;;;;;;4955599;28;20034;-65
2021/12/28 01:02:32;;;;;;;2.83;0.40;;;12.30;98.20;;;;;;4954368;28;20030;-65
2021/12/28 01:04:58;;;;;;;2.08;0.40;;;12.30;98.20;;;;;;4953700;28;20110;-65
2021/12/28 01:07:24;;;;;;;2.40;0.40;;;12.30;98.30;;;;;;4955922;28;20106;-65
2021/12/28 01:09:49;;;;;;;1.80;0.45;;;12.40;98.30;;;;;;4955486;28;20141;-65
2021/12/28 01:12:15;;;;;;;4.68;0.52;;;12.40;98.20;;;;;;4956052;28;20024;-65
2021/12/28 01:14:41;;;;;;;1.50;0.50;;;12.40;98.20;;;;;;4955011;28;20039;-65
2021/12/28 01:17:06;;;;;;;2.55;0.50;;;12.40;98.10;;;;;;4951045;28;20122;-65
2021/12/28 01:19:32;;;;;;;3.22;0.50;;;12.40;98.10;;;;;;4957676;28;20028;-65
2021/12/28 01:22:01;;;;;;;2.28;0.45;;;12.40;98.10;;;;;;4955848;28;20114;-65
2021/12/28 01:24:28;;;;;;;2.15;0.47;;;12.40;98.00;;;;;;4955768;28;20110;-65
2021/12/28 01:26:53;;;;;;;1.13;0.40;;;12.40;98.10;;;;;;4955797;28;20037;-65
2021/12/28 01:29:19;;;;;;;2.72;0.45;;;12.40;98.00;;;;;;4951643;28;20031;-65
2021/12/28 01:31:45;;;;;;;2.38;0.50;;;12.40;98.10;;;;;;4956560;28;20024;-65
2021/12/28 01:34:11;;;;;;;2.67;0.70;;;12.40;98.00;;;;;;4956040;28;20492;-65
2021/12/28 01:36:36;;;;;;;1.98;0.60;;;12.40;97.90;;;;;;4955736;28;20026;-65
2021/12/28 01:39:05;;;;;;;1.95;0.40;;;12.40;98.00;;;;;;4955479;28;20039;-65
2021/12/28 01:41:31;;;;;;;3.08;0.50;;;12.40;97.90;;;;;;4953259;28;20068;-65
2021/12/28 01:43:59;;;;;;;2.03;0.60;;;12.50;98.00;;;;;;4953297;28;20031;-65
2021/12/28 01:46:26;;;;;;;2.92;0.70;;;12.50;97.90;;;;;;4955333;28;20027;-65
2021/12/28 01:48:51;;;;;;;3.20;0.80;;;12.50;97.90;;;;;;4955462;28;20091;-65
2021/12/28 01:51:20;;;;;;;2.22;0.50;;;12.50;97.80;;;;;;4955296;28;20404;-65
2021/12/28 01:53:48;;;;;;;2.85;0.52;;;12.40;97.70;;;;;;4955259;28;20011;-65
2021/12/28 01:56:17;;;;;;;5.13;0.75;;;12.50;97.70;;;;;;4936193;28;20058;-63
2021/12/28 01:58:44;;;;;;;2.83;1.08;;;12.40;97.60;;;;;;4964094;28;20035;-64
2021/12/28 02:01:10;;;;;;;4.55;0.73;;;12.40;97.60;;;;;;4954198;28;20038;-64
2021/12/28 02:03:38;;;;;;;3.08;0.60;;;12.40;97.70;;;;;;4955082;28;20103;-64
2021/12/28 02:06:05;;;;;;;5.20;0.80;;;12.40;97.70;;;;;;4955105;28;20038;-64
2021/12/28 02:08:31;;;;;;;9.15;1.35;;;12.40;97.70;;;;;;4953011;28;20034;-64
2021/12/28 02:10:57;;;;;;;6.15;0.80;;;12.40;97.70;;;;;;4953017;28;20048;-64
2021/12/28 02:13:24;;;;;;;6.20;1.08;;;12.40;97.60;;;;;;4956682;28;20035;-64
2021/12/28 02:15:50;;;;;;;2.97;0.90;;;12.40;97.90;;;;;;4954838;28;20016;-64
2021/12/28 02:18:19;;;;;;;4.10;0.90;;;12.40;97.50;;;;;;4954974;28;20043;-64
2021/12/28 02:20:45;;;;;;;5.95;0.95;;;12.40;97.60;;;;;;4954571;28;20114;-64
2021/12/28 02:23:11;;;;;;;4.82;0.63;;;12.40;97.60;;;;;;4948777;28;20416;-64
2021/12/28 02:25:37;;;;;;;3.45;0.90;;;12.40;97.70;;;;;;4956472;28;20103;-64
2021/12/28 02:28:06;;;;;;;4.10;0.63;;;12.40;97.60;;;;;;4954648;28;20027;-64
2021/12/28 02:30:32;;;;;;;5.60;0.95;;;12.40;97.50;;;;;;4954710;28;20035;-64
2021/12/28 02:32:57;;;;;;;4.93;1.05;;;12.50;97.50;;;;;;4954665;28;20503;-64
2021/12/28 02:35:25;;;;;;;5.00;1.27;;;12.40;97.40;;;;;;4951584;28;20490;-64
2021/12/28 02:37:53;;;;;;;7.82;1.27;;;12.40;97.50;;;;;;4954304;28;20035;-64
2021/12/28 02:40:25;;;;;;;4.25;0.80;;;12.40;97.40;;;;;;4955311;28;20023;-64
2021/12/28 02:42:52;;;;;;;5.55;1.05;;;12.40;97.60;;;;;;4954582;28;20021;-64
2021/12/28 02:45:28;;;;;;;6.13;1.23;;;12.40;97.50;;;;;;4954458;28;20239;-64
2021/12/28 02:47:54;;;;;;;4.85;0.90;;;12.40;97.50;;;;;;4954583;28;20029;-64
2021/12/28 02:50:22;;;;;;;3.15;0.80;;;12.40;97.50;;;;;;4950919;28;20403;-64
2021/12/28 02:52:48;;;;;;;4.63;0.77;;;12.50;97.50;;;;;;4954709;28;20110;-64
2021/12/28 02:55:17;;;;;;;3.85;0.77;;;12.40;97.40;;;;;;4954899;28;20352;-64
2021/12/28 02:57:58;;;;;;;7.45;1.10;;;12.50;97.40;;;;;;4954218;28;20114;-64
2021/12/28 03:00:30;;;;;;;2.53;0.63;;;12.50;97.50;;;;;;4954390;28;20050;-64
2021/12/28 03:02:56;;;;;;;4.40;0.82;;;12.50;97.30;;;;;;4954379;28;20022;-64
2021/12/28 03:05:22;;;;;;;6.32;0.80;;;12.50;97.30;;;;;;4951035;28;20085;-64
2021/12/28 03:07:48;;;;;;;3.33;0.60;;;12.60;97.30;;;;;;4954579;28;20023;-64
2021/12/28 03:10:13;;;;;;;4.32;0.50;;;12.60;97.30;;;;;;4954178;28;20050;-64
2021/12/28 03:12:39;;;;;;;5.75;0.90;;;12.60;97.10;;;;;;4954181;28;20141;-65
2021/12/28 03:15:05;;;;;;;2.92;0.80;;;12.60;97.20;;;;;;4954059;28;20057;-64
2021/12/28 03:17:31;;;;;;;3.45;0.63;;;12.60;97.10;;;;;;4952034;28;20421;-64
2021/12/28 03:19:57;;;;;;;5.43;1.02;;;12.60;97.20;;;;;;4952296;28;20034;-64
2021/12/28 03:22:22;;;;;;;4.63;0.98;;;12.60;97.20;;;;;;4955690;28;20448;-64
2021/12/28 03:24:48;;;;;;;4.07;0.75;;;12.60;97.00;;;;;;4953666;28;20023;-64
2021/12/28 03:27:13;;;;;;;2.35;0.60;;;12.60;97.00;;;;;;4953840;28;20031;-64
2021/12/28 03:29:39;;;;;;;4.93;0.88;;;12.60;96.90;;;;;;4951681;28;20026;-64
2021/12/28 03:32:05;;;;;;;5.90;0.85;;;12.60;96.90;;;;;;4950609;28;20470;-64
2021/12/28 03:34:31;;;;;;;5.13;1.05;;;12.60;96.80;;;;;;4955769;28;20028;-64
2021/12/28 03:36:56;;;;;;;2.17;0.70;;;12.70;97.00;;;;;;4952529;28;20472;-64
2021/12/28 03:39:22;;;;;;;4.03;0.73;;;12.60;97.00;;;;;;4953151;28;20411;-64
2021/12/28 03:41:48;;;;;;;4.57;1.35;;;12.70;96.90;;;;;;4953791;28;20109;-64
2021/12/28 03:44:14;;;;;;;6.00;1.00;;;12.70;97.00;;;;;;4949673;28;20028;-64
2021/12/28 03:46:40;;;;;;;4.30;0.82;;;12.70;96.80;;;;;;4955783;28;20023;-64
2021/12/28 03:49:06;;;;;;;5.65;0.88;;;12.70;96.70;;;;;;4953684;28;20047;-64
2021/12/28 03:51:32;;;;;;;4.78;0.80;;;12.70;96.90;;;;;;4953524;28;20128;-64
2021/12/28 03:53:58;;;;;;;7.75;0.90;;;12.70;96.60;;;;;;4953248;28;20046;-64
2021/12/28 03:56:25;;;;;;;4.22;0.70;;;12.70;96.80;;;;;;4949402;28;20112;-64
2021/12/28 03:58:52;;;;;;;4.65;0.95;;;12.70;96.60;;;;;;4953355;28;20039;-64
2021/12/28 04:01:21;;;;;;;5.57;0.85;;;12.70;97.10;;;;;;4953295;28;20396;-64
2021/12/28 04:03:48;;;;;;;4.25;1.00;;;12.70;96.70;;;;;;4953422;28;20026;-66
2021/12/28 04:06:13;;;;;;;5.03;1.00;;;12.70;96.70;;;;;;4953316;28;20031;-64
2021/12/28 04:08:41;;;;;;;3.75;0.60;;;12.70;96.60;;;;;;4952229;28;20027;-64
2021/12/28 04:11:15;;;;;;;4.30;0.80;;;12.80;96.60;;;;;;4949720;28;20092;-64
2021/12/28 04:13:47;;;;;;;3.00;0.85;;;12.80;96.70;;;;;;4966392;28;20490;-64
2021/12/28 04:16:13;;;;;;;5.30;0.73;;;12.80;96.60;;;;;;4952481;28;20050;-64
2021/12/28 04:18:39;;;;;;;4.07;0.75;;;12.80;96.50;;;;;;4953295;28;20484;-64
2021/12/28 04:21:05;;;;;;;2.95;0.60;;;12.80;96.60;;;;;;4953295;28;20035;-64
2021/12/28 04:23:31;;;;;;;6.25;0.82;;;12.80;96.60;;;;;;4949645;28;20118;-65
2021/12/28 04:25:57;;;;;;;3.92;1.23;;;12.80;96.70;;;;;;4951501;28;20102;-64
2021/12/28 04:28:22;;;;;;;4.82;0.90;;;12.80;96.70;;;;;;4954648;28;20042;-64
2021/12/28 04:30:48;;;;;;;4.93;0.65;;;12.80;96.70;;;;;;4953106;28;20400;-64
2021/12/28 04:33:14;;;;;;;3.45;0.70;;;12.80;96.70;;;;;;4953143;28;20089;-64
2021/12/28 04:35:40;;;;;;;3.20;0.60;;;12.80;96.70;;;;;;4951119;28;20081;-64
2021/12/28 04:38:05;;;;;;;3.83;0.50;;;12.80;96.80;;;;;;4949302;28;20044;-64
2021/12/28 04:40:31;;;;;;;3.45;0.70;;;12.80;96.90;;;;;;4954906;28;20041;-64
2021/12/28 04:42:56;;;;;;;1.65;0.40;;;12.70;96.90;;;;;;4950968;28;20059;-64
2021/12/28 04:45:22;;;;;;;2.55;0.50;;;12.70;97.00;;;;;;4953802;28;20027;-64
2021/12/28 04:47:48;;;;;;;3.92;0.75;;;12.60;97.10;;;;;;4956308;28;20479;-63
2021/12/28 04:50:14;;;;;;;2.30;0.57;;;12.60;97.10;;;;;;4952310;28;20059;-64
2021/12/28 04:52:42;;;;;;;2.47;0.73;;;12.60;97.20;;;;;;4957731;28;20027;-64
2021/12/28 04:55:11;;;;;;;3.05;0.57;;;12.60;97.20;;;;;;4956178;28;20057;-64
2021/12/28 04:57:37;;;;;;;3.00;0.50;;;12.60;97.30;;;;;;4956055;28;20032;-64
2021/12/28 05:00:06;;;;;;;2.40;0.47;;;12.60;97.20;;;;;;4956066;28;20031;-64
2021/12/28 05:02:32;;;;;;;2.75;0.50;;;12.60;97.30;;;;;;4954235;28;20019;-64
2021/12/28 05:04:57;;;;;;;2.58;0.50;;;12.60;97.30;;;;;;4953929;28;20031;-64
2021/12/28 05:07:23;;;;;;;1.98;0.60;;;12.60;97.30;;;;;;4957564;28;20023;-64
2021/12/28 05:09:49;;;;;;;2.83;0.50;;;12.60;97.40;;;;;;4955755;28;20066;-64
2021/12/28 05:12:15;;;;;;;2.15;0.55;;;12.60;97.50;;;;;;4955906;28;20080;-64
2021/12/28 05:14:42;;;;;;;1.92;0.30;;;12.60;97.50;;;;;;4955250;28;20105;-64
2021/12/28 05:17:08;;;;;;;2.45;0.40;;;12.60;97.60;;;;;;4952376;28;20031;-64
2021/12/28 05:19:35;;;;;;;2.63;0.60;;;12.60;97.60;;;;;;4957268;28;20252;-63
2021/12/28 05:22:01;;;;;;;2.67;0.43;;;12.60;97.60;;;;;;4955839;28;20391;-64
2021/12/28 05:24:26;;;;;;;0.73;0.22;;;12.60;97.80;;;;;;4955724;28;20027;-64
2021/12/28 05:26:52;;;;;;;1.52;0.30;;;12.60;97.70;;;;;;4955765;28;20031;-63
2021/12/28 05:29:19;;;;;;;1.25;0.28;;;12.70;97.80;;;;;;4951906;28;20035;-64
2021/12/28 05:31:44;;;;;;;1.08;0.30;;;12.70;97.80;;;;;;4956965;28;20027;-64
2021/12/28 05:34:10;;;;;;;0.55;0.30;;;12.70;97.90;;;;;;4955306;28;20081;-64
2021/12/28 05:36:36;;;;;;;1.70;0.30;;;12.80;97.80;;;;;;4955610;28;20069;-63
2021/12/28 05:39:04;;;;;;;2.60;0.65;;;12.80;97.80;;;;;;4955514;28;20037;-64
2021/12/28 05:41:29;;;;;;;3.15;0.40;;;12.80;97.80;;;;;;4951938;28;20066;-64
2021/12/28 05:43:55;;;;;;;3.17;0.50;;;12.80;97.70;;;;;;4954348;28;20496;-64
2021/12/28 05:46:21;;;;;;;4.40;0.70;;;12.80;97.70;;;;;;4956909;28;20023;-64
2021/12/28 05:48:47;;;;;;;2.55;0.50;;;12.80;97.60;;;;;;4955078;28;20023;-64
2021/12/28 05:51:14;;;;;;;4.97;0.70;;;12.80;97.50;;;;;;4955407;28;20059;-64
2021/12/28 05:53:40;;;;;;;8.35;2.28;;;12.90;97.30;;;;;;4954472;28;20495;-64
2021/12/28 05:56:06;;;;;;;5.18;1.13;;;12.80;97.20;;;;;;4951727;28;20050;-65
2021/12/28 05:58:31;;;;;;;10.27;2.10;;;12.80;97.20;;;;;;4956453;28;20041;-64
2021/12/28 06:00:57;;;;;;;10.75;2.05;;;12.80;97.10;;;;;;4955168;28;20480;-64
2021/12/28 06:03:23;;;;;;;10.43;1.40;;;12.80;96.90;;;;;;4954734;28;20442;-64
2021/12/28 06:05:49;;;;;;;10.18;1.60;;;12.80;96.90;;;;;;4955066;28;20031;-64
2021/12/28 06:08:14;;;;;;;9.45;1.60;;;12.90;96.90;;;;;;4951156;28;20428;-64
2021/12/28 06:10:40;;;;;;;12.77;2.58;;;12.80;96.80;;;;;;4956696;28;20369;-64
2021/12/28 06:13:07;;;;;;;10.73;2.45;;;12.80;96.70;;;;;;4955032;28;20031;-64
2021/12/28 06:15:32;;;;;;;8.35;1.88;;;12.80;96.70;;;;;;4954948;28;20116;-64
2021/12/28 06:17:58;;;;;;;8.88;1.73;;;12.80;96.50;;;;;;4954444;28;20088;-64
2021/12/28 06:20:24;;;;;;;9.55;1.75;;;12.80;96.70;;;;;;4951950;28;20516;-64
2021/12/28 06:22:51;;;;;;;9.82;1.63;;;12.80;96.50;;;;;;4954878;28;20043;-64
2021/12/28 06:25:16;;;;;;;10.88;1.85;;;12.70;96.50;;;;;;4955663;28;20450;-64
2021/12/28 06:27:42;;;;;;;14.77;2.15;;;12.80;96.50;;;;;;4953539;28;20035;-64
2021/12/28 06:30:08;;;;;;;14.77;2.10;;;12.80;96.40;;;;;;4954602;28;20031;-64
2021/12/28 06:32:34;;;;;;;8.05;1.70;;;12.80;96.30;;;;;;4952898;28;20028;-64
2021/12/28 06:35:00;;;;;;;10.23;2.00;;;12.80;96.40;;;;;;4952200;28;20031;-64
2021/12/28 06:37:25;;;;;;;15.10;1.83;;;12.80;96.40;;;;;;4956498;28;20035;-64
2021/12/28 06:39:51;;;;;;;12.00;2.00;;;12.80;96.30;;;;;;4953377;28;20027;-64
2021/12/28 06:42:17;;;;;;;11.63;2.25;;;12.80;96.20;;;;;;4954519;28;20023;-65
2021/12/28 06:44:45;;;;;;;14.68;4.97;;;12.80;96.10;;;;;;4954036;28;20049;-64
2021/12/28 06:47:11;;;;;;;13.80;2.80;;;12.80;96.10;;;;;;4950304;28;20491;-64
2021/12/28 06:49:36;;;;;;;11.82;1.98;;;12.80;96.00;;;;;;4956537;28;20022;-64
2021/12/28 06:52:03;;;;;;;10.07;2.50;;;12.80;95.90;;;;;;4954482;28;20516;-64
2021/12/28 06:54:28;;;;;;;12.15;2.67;;;12.80;96.10;;;;;;4954578;28;20035;-64
2021/12/28 06:56:54;;;;;;;12.85;2.75;;;12.80;96.10;;;;;;4954323;28;20031;-64
2021/12/28 06:59:20;;;;;;;9.35;1.85;;;12.80;96.00;;;;;;4950676;28;20053;-64
2021/12/28 07:01:45;;;;;;;16.13;2.35;;;12.80;95.70;;;;;;4955090;28;20102;-64
2021/12/28 07:04:11;;;;;;;12.32;2.22;;;12.80;95.70;;;;;;4954564;28;20112;-64
2021/12/28 07:06:37;;;;;;;11.63;2.25;;;12.80;95.70;;;;;;4954313;28;20027;-64
2021/12/28 07:09:03;;;;;;;15.10;2.15;;;12.80;95.70;;;;;;4952547;28;20449;-64
2021/12/28 07:11:28;;;;;;;13.55;2.30;;;12.80;95.70;;;;;;4951481;28;20462;-64
2021/12/28 07:13:54;;;;;;;16.48;3.05;;;12.70;95.40;;;;;;4953176;28;20492;-64
2021/12/28 07:16:20;;;;;;;8.75;1.77;;;12.80;95.40;;;;;;4954912;28;20096;-64
2021/12/28 07:18:46;;;;;;;12.70;2.15;;;12.80;95.50;;;;;;4953911;28;20392;-64
2021/12/28 07:21:11;;;;;;;13.18;2.35;;;12.80;95.60;;;;;;4953826;28;20024;-64
2021/12/28 07:23:37;;;;;;;17.48;2.50;;;12.80;95.60;;;;;;4952833;28;20037;-64
2021/12/28 07:26:03;;;;;;;16.52;2.72;;;12.80;95.50;;;;;;4951117;28;20058;-64
2021/12/28 07:28:29;;;;;;;11.98;2.05;;;12.80;95.40;;;;;;4955811;28;20070;-64
2021/12/28 07:30:55;;;;;;;12.95;1.83;;;12.70;95.30;;;;;;4953427;28;20031;-65
2021/12/28 07:33:21;;;;;;;14.10;2.47;;;12.80;95.10;;;;;;4953772;28;20089;-64
2021/12/28 07:35:47;;;;;;;11.65;2.10;;;12.70;95.20;;;;;;4953946;28;20015;-64
2021/12/28 07:38:13;;;;;;;12.88;2.83;;;12.70;95.00;;;;;;4934338;28;20129;-64
2021/12/28 07:40:38;;;;;;;13.30;2.45;;;12.70;94.80;;;;;;4955624;28;20492;-65
2021/12/28 07:43:04;;;;;;;17.75;2.60;;;12.70;94.80;;;;;;4953738;28;20201;-64
2021/12/28 07:45:30;;;;;;;10.10;2.22;;;12.70;94.80;;;;;;4953227;28;20027;-64
2021/12/28 07:47:56;;;;;;;15.90;2.90;;;12.70;94.60;;;;;;4953755;28;20031;-63
2021/12/28 07:50:22;;;;;;;19.13;2.65;;;12.60;94.80;;;;;;4950336;28;20023;-63
2021/12/28 07:52:48;;;;;;;13.70;2.53;;;12.70;94.60;;;;;;4954198;28;20403;-64
2021/12/28 07:55:15;;;;;;;15.15;2.55;;;12.60;94.60;;;;;;4952777;28;20031;-63
2021/12/28 07:57:42;;;;;;;14.90;2.80;;;12.60;94.80;;;;;;4953366;28;20046;-65
2021/12/28 08:00:12;;;;;;;15.60;2.45;;;12.60;94.70;;;;;;4953062;28;20196;-64
2021/12/28 08:02:38;;;;;;;15.38;2.78;;;12.60;94.50;;;;;;4952350;28;20026;-64
2021/12/28 08:05:05;;;;;;;19.42;2.75;;;12.60;94.50;;;;;;4949131;28;20050;-64
2021/12/28 08:07:31;;;;;;;11.57;2.50;;;12.60;94.80;;;;;;4955324;28;20499;-64
2021/12/28 08:09:56;;;;;;;14.75;2.53;;;12.60;94.70;;;;;;4953195;28;20047;-64
2021/12/28 08:12:22;;;;;;;16.50;2.95;;;12.60;94.60;;;;;;4953454;28;20047;-65
2021/12/28 08:14:48;;;;;;;19.27;2.92;;;12.60;94.70;;;;;;4953083;28;20046;-65
2021/12/28 08:17:13;;;;;;;16.92;2.90;;;12.60;94.60;;;;;;4933881;28;20031;-64
2021/12/28 08:19:39;;;;;;;16.70;2.95;;;12.60;94.70;;;;;;4955108;28;20035;-65
2021/12/28 08:22:05;;;;;;;11.15;2.40;;;12.60;94.60;;;;;;4956530;28;20027;-64
2021/12/28 08:24:33;;;;;;;15.48;2.85;;;12.60;94.60;;;;;;4955473;28;20460;-63
2021/12/28 08:26:59;;;;;;;14.68;2.53;;;12.60;94.80;;;;;;4956721;28;20019;-64
2021/12/28 08:29:25;;;;;;;17.38;3.08;;;12.60;94.70;;;;;;4953166;28;20461;-64
2021/12/28 08:31:50;;;;;;;14.18;2.78;;;12.60;94.80;;;;;;4956648;28;20467;-64
2021/12/28 08:34:16;;;;;;;11.93;2.45;;;12.60;94.60;;;;;;4957096;28;20125;-65
2021/12/28 08:36:42;;;;;;;17.48;2.92;;;12.50;94.50;;;;;;4956619;28;20476;-65
2021/12/28 08:39:08;;;;;;;15.25;3.42;;;12.60;94.70;;;;;;4956271;28;20063;-65
2021/12/28 08:41:33;;;;;;;17.02;3.13;;;12.60;94.60;;;;;;4953376;28;20038;-65
2021/12/28 08:43:59;;;;;;;23.02;4.32;;;12.60;94.60;;;;;;4953769;28;20035;-65
2021/12/28 08:46:25;;;;;;;17.30;2.80;;;12.60;94.50;;;;;;4958035;28;20523;-65
2021/12/28 08:48:51;;;;;;;15.57;2.75;;;12.60;94.50;;;;;;4956302;28;20032;-65
2021/12/28 08:51:17;;;;;;;13.80;2.75;;;12.60;94.40;;;;;;4954924;28;20093;-65
2021/12/28 08:53:43;;;;;;;18.35;3.08;;;12.60;94.50;;;;;;4955568;28;20038;-65
2021/12/28 08:56:08;;;;;;;23.85;3.47;;;12.60;94.60;;;;;;4952526;28;20042;-64
2021/12/28 08:58:34;;;;;;;16.58;3.78;;;12.70;94.70;;;;;;4958028;28;20521;-65
2021/12/28 09:01:01;;;;;;;15.98;3.33;;;12.70;94.50;;;;;;4956130;28;20023;-65
2021/12/28 09:03:27;;;;;;;14.75;2.75;;;12.70;94.40;;;;;;4956042;28;20023;-64
2021/12/28 09:05:52;;;;;;;14.57;3.00;;;12.70;94.30;;;;;;4956023;28;20019;-65
2021/12/28 09:08:19;;;;;;;15.85;2.90;;;12.70;94.30;;;;;;4952148;28;20028;-65
2021/12/28 09:10:45;;;;;;;15.75;2.70;;;12.60;94.30;;;;;;4957335;28;20611;-65
2021/12/28 09:13:13;;;;;;;20.38;3.40;;;12.60;94.30;;;;;;4956029;28;20050;-64
2021/12/28 09:15:41;;;;;;;18.10;3.25;;;12.70;94.30;;;;;;4955836;28;20510;-65
2021/12/28 09:18:06;;;;;;;10.75;2.55;;;12.70;94.10;;;;;;4955631;28;20035;-65
2021/12/28 09:20:33;;;;;;;20.80;2.55;;;12.70;94.20;;;;;;4954049;28;20073;-65
2021/12/28 09:22:58;;;;;;;19.60;3.10;;;12.70;94.20;;;;;;4953820;28;20033;-65
2021/12/28 09:25:24;;;;;;;18.25;2.72;;;12.70;94.30;;;;;;4957424;28;20341;-65
2021/12/28 09:27:51;;;;;;;15.82;3.05;;;12.70;94.30;;;;;;4955416;28;20024;-65
2021/12/28 09:30:17;;;;;;;20.70;3.88;;;12.70;94.00;;;;;;4955724;28;20487;-64
2021/12/28 09:32:43;;;;;;;18.52;2.85;;;12.70;94.10;;;;;;4954779;28;20049;-65
2021/12/28 09:35:13;;;;;;;21.15;3.28;;;12.80;94.20;;;;;;4951809;28;20032;-65
2021/12/28 09:37:39;;;;;;;18.67;3.63;;;12.80;94.30;;;;;;4957189;28;20431;-65
2021/12/28 09:40:08;;;;;;;19.10;3.08;;;12.80;93.90;;;;;;4955396;28;20044;-64
2021/12/28 09:42:34;;;;;;;18.10;2.65;;;12.80;94.00;;;;;;4955190;28;20027;-64
2021/12/28 09:45:00;;;;;;;16.80;2.97;;;12.80;94.10;;;;;;4955366;28;20036;-64
2021/12/28 09:47:26;;;;;;;14.45;2.70;;;12.80;94.00;;;;;;4952651;28;20106;-64
2021/12/28 09:49:52;;;;;;;20.38;3.20;;;12.80;93.90;;;;;;4955053;28;20031;-64
2021/12/28 09:52:18;;;;;;;16.65;3.13;;;12.90;93.80;;;;;;4956191;28;20027;-64
2021/12/28 09:54:45;;;;;;;19.13;3.35;;;12.90;93.90;;;;;;4955341;28;20023;-64
2021/12/28 09:57:19;;;;;;;16.35;3.10;;;12.90;94.00;;;;;;4954827;28;20061;-65
2021/12/28 09:59:45;;;;;;;;;;;12.90;93.90;;;;;;4955189;28;20495;-65
2021/12/28 10:02:12;;;;;;;16.33;2.63;;;12.90;94.00;;;;;;4950150;28;19910;-65
2021/12/28 10:05:00;;;;;;;21.00;3.63;;;12.90;93.70;;;;;;4957089;28;20545;-65
2021/12/28 10:07:29;;;;;;;20.73;3.03;;;12.90;94.00;;;;;;4954867;28;20054;-64
2021/12/28 10:09:56;;;;;;;15.18;2.80;;;12.90;93.70;;;;;;4954416;28;20112;-64
2021/12/28 10:12:35;;;;;;;13.80;2.92;;;12.90;93.80;;;;;;4955002;28;20031;-64
2021/12/28 10:15:04;;;;;;;19.17;3.00;;;12.90;93.80;;;;;;4954928;28;20043;-65
2021/12/28 10:17:33;;;;;;;14.38;2.90;;;12.90;93.80;;;;;;4952554;28;20031;-64
2021/12/28 10:20:03;;;;;;;21.85;3.33;;;12.90;93.70;;;;;;4951658;28;20061;-63
2021/12/28 10:22:35;;;;;;;18.90;3.53;;;12.90;93.80;;;;;;4955210;28;20106;-64
2021/12/28 10:25:03;;;;;;;21.40;3.03;;;12.90;93.60;;;;;;4953280;28;20407;-64
2021/12/28 10:27:31;;;;;;;24.58;3.50;;;12.90;93.80;;;;;;4954719;28;20466;-65
2021/12/28 10:30:07;;;;;;;15.13;2.50;;;12.90;93.50;;;;;;4954832;28;20026;-64
2021/12/28 10:32:33;;;;;;;16.00;3.13;;;12.90;93.70;;;;;;4952845;28;20027;-64
2021/12/28 10:35:04;;;;;;;19.10;3.28;;;12.90;94.10;;;;;;4952580;28;20503;-64
2021/12/28 10:37:32;;;;;;;17.85;2.60;;;12.90;93.70;;;;;;4954965;28;20028;-65
2021/12/28 10:40:00;;;;;;;13.60;3.10;;;12.90;93.50;;;;;;4954404;28;20031;-65
2021/12/28 10:42:44;;;;;;;13.40;2.40;;;12.90;93.60;;;;;;4954240;28;20023;-65
2021/12/28 10:45:19;;;;;;;18.17;3.28;;;12.90;93.60;;;;;;4954675;28;20031;-65
2021/12/28 10:47:46;;;;;;;14.80;3.05;;;13.00;93.70;;;;;;4954222;28;20058;-65
2021/12/28 10:50:29;;;;;;;18.60;3.13;;;13.00;93.40;;;;;;4950570;28;20040;-65
2021/12/28 10:53:14;;;;;;;17.65;3.45;;;13.00;93.60;;;;;;4964357;28;20027;-65
2021/12/28 10:55:42;;;;;;;14.43;2.80;;;13.00;93.50;;;;;;4956065;28;20042;-65
2021/12/28 10:58:11;;;;;;;20.10;3.47;;;13.10;93.40;;;;;;4954203;28;20424;-64
2021/12/28 11:00:39;;;;;;;16.52;2.88;;;13.10;93.40;;;;;;4954436;28;20110;-64
2021/12/28 11:03:16;;;;;;;13.55;3.05;;;13.10;93.30;;;;;;4954366;28;20033;-64
2021/12/28 11:05:51;;;;;;;17.63;3.05;;;13.10;93.50;;;;;;4953436;28;20097;-64
2021/12/28 11:08:18;;;;;;;16.42;2.88;;;13.10;93.50;;;;;;4934814;28;20118;-64
2021/12/28 11:10:47;;;;;;;14.20;2.70;;;13.10;93.30;;;;;;4955739;28;20279;-64
2021/12/28 11:13:13;;;;;;;15.00;3.00;;;13.10;93.30;;;;;;4954643;28;20500;-63
2021/12/28 11:15:45;;;;;;;14.95;2.70;;;13.10;93.20;;;;;;4953986;28;20037;-64
2021/12/28 11:18:20;;;;;;;20.17;3.53;;;13.10;93.00;;;;;;4953986;28;20552;-64
2021/12/28 11:20:47;;;;;;;14.50;2.97;;;13.10;93.30;;;;;;4953701;28;20033;-64
2021/12/28 11:23:16;;;;;;;19.38;3.13;;;13.20;93.10;;;;;;4949655;28;20043;-64
2021/12/28 11:25:42;;;;;;;18.20;3.13;;;13.20;93.10;;;;;;4962759;28;20022;-64
2021/12/28 11:28:20;;;;;;;18.48;3.88;;;13.20;93.10;;;;;;4954252;28;20446;-64
2021/12/28 11:31:01;;;;;;;16.45;2.90;;;13.20;93.20;;;;;;4953935;28;20035;-64
2021/12/28 11:33:40;;;;;;;17.95;2.90;;;13.20;93.10;;;;;;4953763;28;20026;-64
2021/12/28 11:36:05;;;;;;;16.27;2.60;;;13.30;93.00;;;;;;4952603;28;20069;-64
2021/12/28 11:38:32;;;;;;;13.77;2.90;;;13.30;92.70;;;;;;4951157;28;20062;-64
2021/12/28 11:40:58;;;;;;;15.52;2.70;;;13.30;92.90;;;;;;4952058;28;20034;-64
2021/12/28 11:43:23;;;;;;;16.02;2.60;;;13.40;92.60;;;;;;4955254;28;20016;-64
2021/12/28 11:45:49;;;;;;;12.68;3.20;;;13.40;92.80;;;;;;4953663;28;20484;-64
2021/12/28 11:48:15;;;;;;;18.08;3.60;;;13.50;92.80;;;;;;4953660;28;20404;-64
2021/12/28 11:50:40;;;;;;;15.45;2.85;;;13.50;92.50;;;;;;4952637;28;20104;-65
2021/12/28 11:53:08;;;;;;;15.57;3.25;;;13.60;92.60;;;;;;4950155;28;20028;-65
2021/12/28 11:55:34;;;;;;;17.63;2.88;;;13.70;92.60;;;;;;4954509;28;20080;-65
2021/12/28 11:57:59;;;;;;;17.70;2.97;;;13.70;92.10;;;;;;4953632;28;20122;-65
2021/12/28 12:00:35;;;;;;;15.27;2.97;;;13.70;92.10;;;;;;4953691;28;20030;-65
2021/12/28 12:03:02;;;;;;;12.52;2.42;;;13.60;92.10;;;;;;4953492;28;20559;-65
2021/12/28 12:05:31;;;;;;;18.52;2.83;;;13.60;92.30;;;;;;4950808;28;20024;-65
2021/12/28 12:08:05;;;;;;;13.80;3.13;;;13.70;92.50;;;;;;4952075;28;20019;-65
2021/12/28 12:10:32;;;;;;;10.93;2.30;;;13.80;92.60;;;;;;4953826;28;20063;-65
2021/12/28 12:13:12;;;;;;;12.95;2.97;;;14.00;92.30;;;;;;4953276;28;20108;-65
2021/12/28 12:15:42;;;;;;;16.20;2.67;;;14.00;91.80;;;;;;4953477;28;20031;-65
2021/12/28 12:18:10;;;;;;;16.08;2.95;;;14.10;92.20;;;;;;4953176;28;20042;-65
2021/12/28 12:20:37;;;;;;;15.63;3.20;;;14.20;91.50;;;;;;4951497;28;20034;-64
2021/12/28 12:23:12;;;;;;;10.48;2.30;;;14.20;91.50;;;;;;4950438;28;20049;-65
2021/12/28 12:25:51;;;;;;;16.50;3.28;;;14.30;91.70;;;;;;4955246;28;20439;-65
2021/12/28 12:28:33;;;;;;;11.77;2.78;;;14.30;91.20;;;;;;4952663;28;20044;-65
2021/12/28 12:31:00;;;;;;;16.27;3.08;;;14.30;91.30;;;;;;4953318;28;20019;-65
2021/12/28 12:33:38;;;;;;;14.75;2.83;;;14.30;91.10;;;;;;4952047;28;20122;-65
2021/12/28 12:36:08;;;;;;;18.48;3.33;;;14.30;91.00;;;;;;4952803;28;20111;-65
2021/12/28 12:38:35;;;;;;;16.27;2.65;;;14.20;91.00;;;;;;4951299;28;20499;-65
2021/12/28 12:41:01;;;;;;;12.65;2.47;;;14.30;91.70;;;;;;4950512;28;20047;-64
2021/12/28 12:43:36;;;;;;;14.77;2.60;;;14.50;91.80;;;;;;4954945;28;20062;-65
2021/12/28 12:46:05;;;;;;;22.67;3.25;;;15.30;93.40;;;;;;4952985;28;20051;-65